Time;durP1;ratioP1;P1;durP2;ratioP2;P2;SDS_P1;SDS_P2;PMS_P1;PMS_P2;Temp;Humidity;BMP_temperature;BMP_pressure;BME280_temperature;BME280_humidity;BME280_pressure;Samples;Min_cycle;Max_cycle;Signal;HPM_P1;HPM_P2
2022/05/10 00:01:51;;;;;;;;;;;;;;;5.29;61.23;100301.31;1632090;87;20204;-78
2022/05/10 00:04:17;;;;;;;;;;;;;;;5.20;61.23;100296.65;1603235;88;20153;-78
2022/05/10 00:06:45;;;;;;;;;;;;;;;5.10;61.41;100302.02;1630858;86;20604;-78
2022/05/10 00:09:14;;;;;;;;;;;;;;;4.99;61.94;100302.48;1630292;86;20126;-79
2022/05/10 00:11:40;;;;;;;;;;;;;;;4.87;62.34;100297.76;1630472;86;21810;-78
2022/05/10 00:14:06;;;;;;;;;;;;;;;4.79;62.80;100295.52;1600774;88;20104;-81
2022/05/10 00:16:34;;;;;;;;;;;;;;;4.70;63.12;100297.06;1604224;87;20117;-80
2022/05/10 00:19:00;;;;;;;;;;;;;;;4.60;63.55;100302.72;1629343;86;20265;-81
2022/05/10 00:21:26;;;;;;;;;;;;;;;4.53;64.24;100295.86;1630097;87;20158;-82
2022/05/10 00:23:52;;;;;;;;;;;;;;;4.46;64.93;100294.70;1630523;86;21122;-79
2022/05/10 00:26:19;;;;;;;;;;;;;;;4.39;65.77;100293.27;1631972;86;20106;-79
2022/05/10 00:28:45;;;;;;;;;;;;;;;4.34;66.26;100297.29;1601546;86;20104;-80
2022/05/10 00:31:11;;;;;;;;;;;;;;;4.27;66.82;100302.39;1629389;87;20446;-79
2022/05/10 00:33:38;;;;;;;;;;;;;;;4.21;67.21;100294.44;1602026;88;20097;-80
2022/05/10 00:36:05;;;;;;;;;;;;;;;4.17;67.74;100296.84;1601284;87;21781;-80
2022/05/10 00:38:33;;;;;;;;;;;;;;;4.12;68.28;100295.97;1628577;86;20446;-80
2022/05/10 00:41:25;;;;;;;;;;;;;;;4.06;68.86;100295.63;1626106;87;20146;-80
2022/05/10 00:44:04;;;;;;;;;;;;;;;4.01;69.29;100288.27;1642111;86;20102;-80
2022/05/10 00:46:36;;;;;;;;;;;;;;;3.95;70.11;100285.21;1638481;85;20471;-80
2022/05/10 00:49:10;;;;;;;;;;;;;;;3.87;70.68;100289.20;1645560;84;21143;-80
2022/05/10 00:51:46;;;;;;;;;;;;;;;3.84;71.16;100292.41;1660831;86;20450;-79
2022/05/10 00:54:25;;;;;;;;;;;;;;;3.81;72.04;100292.92;1633409;86;20101;-79
2022/05/10 00:57:14;;;;;;;;;;;;;;;3.76;71.96;100287.42;1644317;86;20183;-78
2022/05/10 00:59:59;;;;;;;;;;;;;;;3.71;71.79;100296.87;1645298;84;20163;-79
2022/05/10 01:02:35;;;;;;;;;;;;;;;3.67;71.75;100295.73;1641330;86;21149;-79
2022/05/10 01:05:20;;;;;;;;;;;;;;;3.63;71.91;100292.70;1639384;84;20146;-79
2022/05/10 01:07:52;;;;;;;;;;;;;;;3.60;71.98;100288.30;1635514;85;20154;-80
2022/05/10 01:10:22;;;;;;;;;;;;;;;3.57;72.40;100286.91;1632216;86;20082;-81
2022/05/10 01:12:52;;;;;;;;;;;;;;;3.57;72.55;100294.23;1629369;86;20429;-80
2022/05/10 01:15:23;;;;;;;;;;;;;;;3.53;72.77;100293.91;1645976;85;21177;-81
2022/05/10 01:17:51;;;;;;;;;;;;;;;3.51;73.00;100293.88;1635776;85;20119;-80
2022/05/10 01:20:20;;;;;;;;;;;;;;;3.48;73.03;100288.42;1638968;86;20149;-81
2022/05/10 01:22:51;;;;;;;;;;;;;;;3.47;73.25;100290.02;1630945;86;20174;-81
2022/05/10 01:25:27;;;;;;;;;;;;;;;3.43;73.48;100284.84;1636160;86;20193;-81
2022/05/10 01:28:17;;;;;;;;;;;;;;;3.41;74.03;100286.98;1648239;86;21346;-81
2022/05/10 01:30:43;;;;;;;;;;;;;;;3.36;74.36;100286.91;1624953;86;20461;-81
2022/05/10 01:33:31;;;;;;;;;;;;;;;3.31;74.99;100283.59;1651564;86;20268;-80
2022/05/10 01:36:18;;;;;;;;;;;;;;;3.28;75.86;100280.84;1643466;86;20149;-79
2022/05/10 01:39:07;;;;;;;;;;;;;;;3.25;76.75;100284.59;1667932;86;20116;-80
2022/05/10 01:41:48;;;;;;;;;;;;;;;3.20;77.07;100277.73;1640301;86;21721;-78
2022/05/10 01:44:40;;;;;;;;;;;;;;;3.15;77.21;100282.55;1645670;86;20137;-78
2022/05/10 01:47:11;;;;;;;;;;;;;;;3.12;77.37;100275.44;1640088;86;33292;-78
2022/05/10 01:49:54;;;;;;;;;;;;;;;3.10;77.96;100278.41;1650752;85;20102;-78
2022/05/10 01:52:24;;;;;;;;;;;;;;;3.08;78.20;100279.19;1643061;85;20094;-77
2022/05/10 01:55:15;;;;;;;;;;;;;;;3.05;78.47;100275.61;1629443;85;21287;-78
2022/05/10 01:57:42;;;;;;;;;;;;;;;3.03;78.65;100279.11;1642254;85;20150;-76
2022/05/10 02:00:15;;;;;;;;;;;;;;;3.01;78.97;100279.07;1638159;86;20450;-77
2022/05/10 02:02:44;;;;;;;;;;;;;;;2.99;79.51;100276.61;1633446;85;20095;-77
2022/05/10 02:05:14;;;;;;;;;;;;;;;2.98;80.13;100276.31;1649487;86;20114;-77
2022/05/10 02:07:41;;;;;;;;;;;;;;;2.96;80.48;100278.45;1637579;86;21795;-78
2022/05/10 02:10:25;;;;;;;;;;;;;;;2.92;81.04;100272.70;1635583;86;20157;-80
2022/05/10 02:12:59;;;;;;;;;;;;;;;2.90;81.29;100275.38;1659814;86;20114;-80
2022/05/10 02:15:38;;;;;;;;;;;;;;;2.87;81.37;100282.15;1651146;86;20759;-80
2022/05/10 02:18:20;;;;;;;;;;;;;;;2.83;81.62;100281.53;1647799;86;20101;-80
2022/05/10 02:20:56;;;;;;;;;;;;;;;2.80;82.07;100284.20;1659241;86;21194;-80
2022/05/10 02:23:28;;;;;;;;;;;;;;;2.79;82.64;100275.78;1654947;86;20119;-81
2022/05/10 02:26:10;;;;;;;;;;;;;;;2.79;82.78;100283.92;1653160;85;20150;-80
2022/05/10 02:28:42;;;;;;;;;;;;;;;2.77;83.18;100281.16;1630187;86;21199;-82
2022/05/10 02:31:20;;;;;;;;;;;;;;;2.75;83.19;100281.94;1630873;86;20115;-80
2022/05/10 02:33:47;;;;;;;;;;;;;;;2.72;83.13;100284.61;1651414;84;21584;-79
2022/05/10 02:36:13;;;;;;;;;;;;;;;2.71;83.50;100286.22;1646830;86;20414;-77
2022/05/10 02:38:42;;;;;;;;;;;;;;;2.71;83.76;100284.33;1649668;86;20433;-77
2022/05/10 02:41:14;;;;;;;;;;;;;;;2.71;84.22;100288.92;1633760;86;20914;-79
2022/05/10 02:43:50;;;;;;;;;;;;;;;2.70;84.66;100285.92;1652473;84;20469;-78
2022/05/10 02:46:17;;;;;;;;;;;;;;;2.69;84.74;100282.39;1634139;86;21189;-78
2022/05/10 02:48:44;;;;;;;;;;;;;;;2.68;85.29;100287.52;1635526;86;20090;-80
2022/05/10 02:51:11;;;;;;;;;;;;;;;2.70;85.59;100292.70;1647048;86;20115;-79
2022/05/10 02:53:37;;;;;;;;;;;;;;;2.70;85.75;100289.45;1637911;86;20158;-78
2022/05/10 02:56:09;;;;;;;;;;;;;;;2.73;86.08;100294.92;1640223;86;20437;-78
2022/05/10 02:58:45;;;;;;;;;;;;;;;2.76;86.32;100291.72;1647563;86;21039;-78
2022/05/10 03:01:39;;;;;;;;;;;;;;;2.80;86.71;100288.80;1640291;86;20118;-80
2022/05/10 03:04:07;;;;;;;;;;;;;;;2.83;87.07;100286.95;1639801;85;20114;-86
2022/05/10 03:06:36;;;;;;;;;;;;;;;2.84;87.16;100289.95;1649741;86;20131;-81
2022/05/10 03:09:02;;;;;;;;;;;;;;;2.87;87.62;100293.00;1678841;84;20442;-81
2022/05/10 03:11:30;;;;;;;;;;;;;;;2.90;87.95;100291.12;1662015;84;21194;-81
2022/05/10 03:13:56;;;;;;;;;;;;;;;2.96;88.26;100284.70;1658734;83;20113;-86
2022/05/10 03:16:23;;;;;;;;;;;;;;;3.03;88.31;100285.89;1675092;85;20198;-85
2022/05/10 03:18:49;;;;;;;;;;;;;;;3.10;88.31;100285.72;1675813;83;20810;-82
2022/05/10 03:21:16;;;;;;;;;;;;;;;3.16;88.33;100282.02;1672461;84;20084;-77
2022/05/10 03:23:43;;;;;;;;;;;;;;;3.24;88.36;100284.30;1674945;84;21166;-81
2022/05/10 03:26:11;;;;;;;;;;;;;;;3.32;88.59;100286.59;1655982;86;20232;-75
2022/05/10 03:28:38;;;;;;;;;;;;;;;3.43;88.60;100291.63;1661307;85;20103;-70
2022/05/10 03:31:06;;;;;;;;;;;;;;;3.52;87.92;100290.09;1652366;85;20116;-74
2022/05/10 03:33:32;;;;;;;;;;;;;;;3.62;87.32;100291.05;1654928;86;20132;-74
2022/05/10 03:35:59;;;;;;;;;;;;;;;3.76;86.96;100287.42;1618285;85;21363;-74
2022/05/10 03:38:26;;;;;;;;;;;;;;;3.88;86.44;100287.30;1629144;86;20174;-72
2022/05/10 03:40:52;;;;;;;;;;;;;;;4.00;86.03;100288.52;1623103;86;20152;-76
2022/05/10 03:43:19;;;;;;;;;;;;;;;4.14;85.62;100291.09;1628220;86;20170;-72
2022/05/10 03:45:46;;;;;;;;;;;;;;;4.28;84.87;100285.55;1621915;86;20189;-73
2022/05/10 03:48:13;;;;;;;;;;;;;;;4.44;83.94;100283.27;1606224;86;22207;-72
2022/05/10 03:50:39;;;;;;;;;;;;;;;4.61;83.08;100285.87;1618509;85;20139;-74
2022/05/10 03:53:06;;;;;;;;;;;;;;;4.78;82.28;100280.27;1636171;85;20457;-73
2022/05/10 03:55:32;;;;;;;;;;;;;;;4.93;81.44;100278.50;1629516;86;20090;-69
2022/05/10 03:57:59;;;;;;;;;;;;;;;5.11;81.29;100277.80;1605174;88;20091;-70
2022/05/10 04:00:27;;;;;;;;;;;;;;;5.29;80.77;100274.63;1628069;86;21231;-75
2022/05/10 04:02:55;;;;;;;;;;;;;;;5.50;79.54;100281.02;1605597;87;20460;-72
2022/05/10 04:05:23;;;;;;;;;;;;;;;5.68;78.41;100279.75;1622633;87;20473;-73
2022/05/10 04:07:50;;;;;;;;;;;;;;;5.86;77.31;100275.16;1629705;86;20098;-73
2022/05/10 04:10:17;;;;;;;;;;;;;;;6.04;75.60;100282.07;1603855;88;20420;-73
2022/05/10 04:12:43;;;;;;;;;;;;;;;6.17;74.17;100279.66;1627776;86;21931;-74
2022/05/10 04:15:12;;;;;;;;;;;;;;;6.34;72.86;100278.06;1637356;86;20127;-74
2022/05/10 04:17:39;;;;;;;;;;;;;;;6.51;72.44;100285.42;1627509;86;20127;-76
2022/05/10 04:20:08;;;;;;;;;;;;;;;6.69;71.69;100277.27;1625990;87;20147;-83
2022/05/10 04:22:35;;;;;;;;;;;;;;;6.86;67.72;100277.00;1612216;87;20105;-83
2022/05/10 04:25:01;;;;;;;;;;;;;;;7.02;66.72;100280.51;1610507;87;21753;-83
2022/05/10 04:27:28;;;;;;;;;;;;;;;7.17;66.27;100279.95;1625018;87;20178;-79
2022/05/10 04:29:56;;;;;;;;;;;;;;;7.36;64.57;100280.73;1610013;87;20666;-77
2022/05/10 04:32:22;;;;;;;;;;;;;;;7.50;63.25;100286.72;1603578;87;20165;-86
2022/05/10 04:34:49;;;;;;;;;;;;;;;7.65;61.94;100280.91;1606794;88;20148;-79
2022/05/10 04:37:15;;;;;;;;;;;;;;;7.78;61.67;100283.86;1627232;86;21152;-80
2022/05/10 04:42:27;;;;;;;;;;;;;;;8.06;60.44;100287.84;1644231;86;20164;-77
2022/05/10 04:44:53;;;;;;;;;;;;;;;8.18;57.75;100287.48;1616176;86;20175;-78
2022/05/10 04:47:19;;;;;;;;;;;;;;;8.24;56.53;100280.34;1630785;86;20241;-76
2022/05/10 04:49:46;;;;;;;;;;;;;;;8.34;57.21;100278.13;1635879;86;21162;-74
2022/05/10 04:52:12;;;;;;;;;;;;;;;8.44;57.30;100280.80;1604534;86;20444;-74
2022/05/10 04:54:40;;;;;;;;;;;;;;;8.58;58.19;100283.72;1627360;86;20563;-74
2022/05/10 04:57:07;;;;;;;;;;;;;;;8.75;57.74;100275.08;1599222;87;20716;-75
2022/05/10 04:59:33;;;;;;;;;;;;;;;8.88;56.74;100282.64;1653042;85;20156;-74
2022/05/10 05:02:00;;;;;;;;;;;;;;;8.99;56.65;100282.83;1659261;85;21803;-72
2022/05/10 05:04:26;;;;;;;;;;;;;;;9.08;55.86;100281.10;1664413;86;20108;-72
2022/05/10 05:06:53;;;;;;;;;;;;;;;9.18;55.85;100278.27;1647061;85;20248;-74
2022/05/10 05:09:19;;;;;;;;;;;;;;;9.29;54.90;100280.33;1670247;85;20223;-70
2022/05/10 05:11:45;;;;;;;;;;;;;;;9.37;54.91;100278.88;1657851;86;20430;-73
2022/05/10 05:14:12;;;;;;;;;;;;;;;9.45;58.23;100290.58;1688475;84;21063;-74
2022/05/10 05:16:38;;;;;;;;;;;;;;;9.59;55.33;100284.13;1686179;84;20476;-74
2022/05/10 05:19:05;;;;;;;;;;;;;;;9.69;55.89;100287.30;1688258;83;20113;-76
2022/05/10 05:21:32;;;;;;;;;;;;;;;9.80;54.73;100286.63;1685484;84;20087;-73
2022/05/10 05:23:58;;;;;;;;;;;;;;;9.92;54.77;100282.34;1689108;84;20185;-72
2022/05/10 05:26:25;;;;;;;;;;;;;;;10.02;53.78;100287.44;1686804;84;21226;-75
2022/05/10 05:28:51;;;;;;;;;;;;;;;10.11;55.24;100287.05;1668498;84;20242;-74
2022/05/10 05:31:18;;;;;;;;;;;;;;;10.23;54.83;100286.09;1686966;84;20133;-75
2022/05/10 05:33:45;;;;;;;;;;;;;;;10.36;55.09;100285.91;1687150;84;20169;-79
2022/05/10 05:36:12;;;;;;;;;;;;;;;10.48;53.77;100291.19;1688026;84;20484;-77
2022/05/10 05:38:41;;;;;;;;;;;;;;;10.57;52.85;100286.66;1687717;84;21169;-76
2022/05/10 05:41:07;;;;;;;;;;;;;;;10.66;51.56;100283.25;1683251;83;20464;-72
2022/05/10 05:43:34;;;;;;;;;;;;;;;10.72;50.37;100287.55;1666685;84;20160;-80
2022/05/10 05:46:05;;;;;;;;;;;;;;;10.79;48.65;100290.73;1685575;83;20607;-73
2022/05/10 05:48:31;;;;;;;;;;;;;;;10.85;49.77;100283.48;1681069;84;20136;-81
2022/05/10 05:50:58;;;;;;;;;;;;;;;10.97;49.96;100283.02;1686855;84;21112;-71
2022/05/10 05:53:26;;;;;;;;;;;;;;;11.09;47.51;100277.84;1683303;83;20089;-84
2022/05/10 05:55:53;;;;;;;;;;;;;;;11.17;45.04;100277.15;1686767;83;20085;-80
2022/05/10 05:58:21;;;;;;;;;;;;;;;11.24;45.15;100275.38;1692746;84;20192;-79
2022/05/10 06:00:47;;;;;;;;;;;;;;;11.27;43.52;100270.66;1689091;83;20093;-78
2022/05/10 06:03:14;;;;;;;;;;;;;;;11.33;41.79;100271.37;1690285;83;21260;-76
2022/05/10 06:05:42;;;;;;;;;;;;;;;11.37;43.98;100267.72;1690167;83;20091;-78
2022/05/10 06:08:09;;;;;;;;;;;;;;;11.51;44.99;100265.80;1687090;83;20409;-78
2022/05/10 06:10:36;;;;;;;;;;;;;;;11.66;42.85;100268.78;1686109;83;20098;-76
2022/05/10 06:13:03;;;;;;;;;;;;;;;11.80;42.99;100268.27;1690150;83;20101;-78
2022/05/10 06:15:30;;;;;;;;;;;;;;;11.94;43.21;100259.19;1708125;81;21139;-77
2022/05/10 06:17:56;;;;;;;;;;;;;;;12.05;42.02;100259.22;1729742;80;20149;-79
2022/05/10 06:20:24;;;;;;;;;;;;;;;12.13;41.87;100262.03;1692224;84;20464;-76
2022/05/10 06:22:51;;;;;;;;;;;;;;;12.24;40.43;100260.69;1719508;81;20119;-78
2022/05/10 06:25:19;;;;;;;;;;;;;;;12.35;38.42;100257.15;1697130;82;20130;-72
2022/05/10 06:27:47;;;;;;;;;;;;;;;12.43;37.87;100259.17;1702912;81;21158;-72
2022/05/10 06:30:14;;;;;;;;;;;;;;;12.54;38.53;100259.74;1714998;82;20168;-70
2022/05/10 06:32:40;;;;;;;;;;;;;;;12.64;35.53;100255.94;1696880;83;20229;-72
2022/05/10 06:35:08;;;;;;;;;;;;;;;12.71;37.74;100264.58;1681619;84;20431;-73
2022/05/10 06:40:20;;;;;;;;;;;;;;;12.92;37.44;100260.17;1676249;83;22088;-69
2022/05/10 06:42:48;;;;;;;;;;;;;;;12.99;35.51;100249.52;1682404;84;20240;-72
2022/05/10 06:45:17;;;;;;;;;;;;;;;12.99;36.12;100246.77;1655197;83;20088;-74
2022/05/10 06:47:47;;;;;;;;;;;;;;;13.07;37.68;100248.77;1660452;85;20092;-74
2022/05/10 06:50:14;;;;;;;;;;;;;;;13.27;39.41;100248.83;1683661;84;20103;-74
2022/05/10 06:52:42;;;;;;;;;;;;;;;13.50;40.90;100245.42;1662091;85;21206;-74
2022/05/10 06:55:09;;;;;;;;;;;;;;;13.72;39.13;100241.20;1669456;84;20425;-74
2022/05/10 06:57:35;;;;;;;;;;;;;;;13.86;36.93;100243.25;1670129;83;20127;-76
2022/05/10 07:00:04;;;;;;;;;;;;;;;13.97;37.99;100234.11;1677877;83;20120;-84
2022/05/10 07:02:31;;;;;;;;;;;;;;;14.05;34.47;100246.30;1666048;83;20176;-78
2022/05/10 07:04:57;;;;;;;;;;;;;;;14.00;35.86;100238.98;1659661;84;21146;-80
2022/05/10 07:07:24;;;;;;;;;;;;;;;14.00;36.40;100230.70;1707662;83;20135;-77
2022/05/10 07:09:52;;;;;;;;;;;;;;;14.03;34.71;100225.11;1665701;83;20139;-80
2022/05/10 07:12:18;;;;;;;;;;;;;;;14.08;34.94;100224.39;1670819;83;20409;-75
2022/05/10 07:14:45;;;;;;;;;;;;;;;14.21;34.78;100227.57;1661209;83;20442;-77
2022/05/10 07:17:12;;;;;;;;;;;;;;;14.31;33.09;100226.45;1663878;85;21177;-77
2022/05/10 07:19:39;;;;;;;;;;;;;;;14.38;31.04;100219.87;1659676;83;20177;-75
2022/05/10 07:22:07;;;;;;;;;;;;;;;14.40;31.19;100216.78;1661744;85;20124;-84
2022/05/10 07:24:33;;;;;;;;;;;;;;;14.39;32.96;100220.11;1693929;82;20100;-75
2022/05/10 07:27:00;;;;;;;;;;;;;;;14.44;31.04;100221.34;1663469;83;20435;-76
2022/05/10 07:29:26;;;;;;;;;;;;;;;14.40;32.25;100211.27;1658421;83;21177;-75
2022/05/10 07:31:54;;;;;;;;;;;;;;;14.46;31.48;100219.06;1670193;84;20144;-70
2022/05/10 07:34:22;;;;;;;;;;;;;;;14.57;31.89;100211.83;1683946;84;20080;-74
2022/05/10 07:36:48;;;;;;;;;;;;;;;14.62;29.57;100205.56;1661204;83;20191;-80
2022/05/10 07:39:15;;;;;;;;;;;;;;;14.64;31.83;100219.05;1656388;84;20100;-74
2022/05/10 07:41:42;;;;;;;;;;;;;;;14.76;32.95;100213.68;1680768;83;21761;-75
2022/05/10 07:44:08;;;;;;;;;;;;;;;14.85;31.15;100210.33;1662267;84;20119;-78
2022/05/10 07:46:36;;;;;;;;;;;;;;;14.94;31.35;100200.64;1667257;83;20127;-74
2022/05/10 07:49:02;;;;;;;;;;;;;;;15.09;31.70;100205.05;1663194;84;20147;-78
2022/05/10 07:51:29;;;;;;;;;;;;;;;15.33;32.67;100198.95;1669120;83;20207;-76
2022/05/10 07:53:56;;;;;;;;;;;;;;;15.50;29.65;100202.22;1651268;84;21231;-79
2022/05/10 07:56:24;;;;;;;;;;;;;;;15.56;28.53;100189.82;1641470;86;20158;-80
2022/05/10 07:58:55;;;;;;;;;;;;;;;15.57;29.88;100185.94;1647517;86;20167;-76
2022/05/10 08:01:21;;;;;;;;;;;;;;;15.80;32.15;100191.97;1665254;85;20096;-76
2022/05/10 08:03:48;;;;;;;;;;;;;;;16.27;29.76;100188.44;1658240;85;20432;-78
2022/05/10 08:06:16;;;;;;;;;;;;;;;16.71;27.46;100180.59;1624295;87;21147;-69
2022/05/10 08:08:43;;;;;;;;;;;;;;;16.89;25.41;100170.92;1631417;86;20090;-77
2022/05/10 08:11:09;;;;;;;;;;;;;;;16.94;28.48;100180.41;1628158;86;20104;-71
2022/05/10 08:13:37;;;;;;;;;;;;;;;17.22;28.63;100170.06;1665372;84;20100;-72
2022/05/10 08:16:04;;;;;;;;;;;;;;;17.44;27.46;100163.46;1656858;85;20131;-77
2022/05/10 08:18:30;;;;;;;;;;;;;;;17.65;27.97;100164.77;1628516;86;21919;-71
2022/05/10 08:20:58;;;;;;;;;;;;;;;17.84;27.59;100161.40;1682017;83;20079;-76
2022/05/10 08:23:27;;;;;;;;;;;;;;;17.99;26.85;100155.09;1651226;84;20148;-78
2022/05/10 08:25:55;;;;;;;;;;;;;;;18.25;27.78;100151.09;1663074;84;20195;-82
2022/05/10 08:28:25;;;;;;;;;;;;;;;18.47;25.51;100152.75;1665545;85;20100;-77
2022/05/10 08:30:51;;;;;;;;;;;;;;;18.68;26.49;100145.59;1664755;85;21130;-73
2022/05/10 08:33:23;;;;;;;;;;;;;;;18.93;26.01;100153.22;1669702;85;20093;-73
2022/05/10 08:35:51;;;;;;;;;;;;;;;19.04;23.79;100146.55;1625062;86;20144;-71
2022/05/10 08:38:19;;;;;;;;;;;;;;;19.01;25.46;100141.70;1654779;85;20143;-71
2022/05/10 08:40:48;;;;;;;;;;;;;;;19.17;25.32;100144.46;1631408;85;20146;-73
2022/05/10 08:43:24;;;;;;;;;;;;;;;19.41;24.25;100141.50;1636137;85;21481;-72
2022/05/10 08:45:50;;;;;;;;;;;;;;;19.41;24.53;100133.14;1608809;85;20210;-71
2022/05/10 08:48:18;;;;;;;;;;;;;;;19.28;25.71;100141.37;1596917;89;20146;-71
2022/05/10 08:50:48;;;;;;;;;;;;;;;19.31;25.43;100142.84;1594200;88;20153;-73
2022/05/10 08:53:16;;;;;;;;;;;;;;;19.40;23.33;100134.31;1683954;83;20098;-75
2022/05/10 08:55:52;;;;;;;;;;;;;;;19.26;25.13;100139.52;1664274;85;21230;-72
2022/05/10 08:58:45;;;;;;;;;;;;;;;19.34;24.23;100142.71;1664743;85;20528;-75
2022/05/10 09:01:23;;;;;;;;;;;;;;;19.51;22.96;100129.84;1661421;85;20087;-72
2022/05/10 09:04:06;;;;;;;;;;;;;;;19.65;22.83;100121.80;1664790;86;20745;-71
2022/05/10 09:06:46;;;;;;;;;;;;;;;19.52;22.58;100119.52;1663269;85;20092;-69
2022/05/10 09:09:28;;;;;;;;;;;;;;;19.33;23.23;100128.57;1665055;85;21280;-71
2022/05/10 09:12:15;;;;;;;;;;;;;;;19.40;21.32;100140.69;1626799;88;20102;-70
2022/05/10 09:15:02;;;;;;;;;;;;;;;19.19;23.38;100124.04;1680568;83;20162;-66
2022/05/10 09:17:31;;;;;;;;;;;;;;;19.21;23.53;100114.16;1679227;83;20450;-65
2022/05/10 09:19:58;;;;;;;;;;;;;;;19.63;26.15;100109.43;1682426;83;20188;-68
2022/05/10 09:22:51;;;;;;;;;;;;;;;19.96;22.42;100111.16;1685048;83;21842;-67
2022/05/10 09:25:30;;;;;;;;;;;;;;;20.09;23.95;100104.86;1651256;84;20140;-67
2022/05/10 09:27:57;;;;;;;;;;;;;;;20.35;21.92;100102.19;1685193;83;20077;-70
2022/05/10 09:30:32;;;;;;;;;;;;;;;20.39;23.00;100105.08;1670904;82;20151;-72
2022/05/10 09:36:05;;;;;;;;;;;;;;;20.04;21.60;100092.61;1696350;82;21095;-76
2022/05/10 09:38:33;;;;;;;;;;;;;;;19.94;21.85;100095.97;1687016;82;20146;-77
2022/05/10 09:40:59;;;;;;;;;;;;;;;19.76;22.27;100083.05;1699357;82;20085;-75
2022/05/10 09:43:32;;;;;;;;;;;;;;;19.88;22.42;100089.88;1672226;84;20643;-78
2022/05/10 09:46:11;;;;;;;;;;;;;;;19.98;20.48;100075.37;1693447;82;20120;-77
2022/05/10 09:48:40;;;;;;;;;;;;;;;19.93;21.41;100077.05;1667875;84;21045;-73
2022/05/10 09:51:26;;;;;;;;;;;;;;;19.98;22.04;100069.80;1694061;84;20123;-75
2022/05/10 09:53:53;;;;;;;;;;;;;;;20.06;23.06;100070.75;1700609;82;20087;-73
2022/05/10 09:56:39;;;;;;;;;;;;;;;20.30;22.45;100069.62;1694389;82;20130;-74
2022/05/10 09:59:15;;;;;;;;;;;;;;;20.54;22.63;100060.15;1660378;85;20136;-75
2022/05/10 10:01:45;;;;;;;;;;;;;;;20.69;21.49;100053.07;1659804;85;21166;-74
2022/05/10 10:04:23;;;;;;;;;;;;;;;20.79;21.74;100046.66;1667733;85;20438;-75
2022/05/10 10:07:14;;;;;;;;;;;;;;;20.99;22.81;100043.98;1656544;85;20114;-75
2022/05/10 10:09:46;;;;;;;;;;;;;;;21.04;22.22;100043.08;1661225;85;20133;-72
2022/05/10 10:12:23;;;;;;;;;;;;;;;21.01;21.25;100056.97;1635750;85;20486;-77
2022/05/10 10:14:53;;;;;;;;;;;;;;;20.95;21.31;100036.95;1639644;85;21258;-74
2022/05/10 10:17:29;;;;;;;;;;;;;;;21.07;21.24;100047.11;1634774;86;20121;-72
2022/05/10 10:20:15;;;;;;;;;;;;;;;21.21;19.34;100041.78;1633563;85;20156;-74
2022/05/10 10:22:44;;;;;;;;;;;;;;;21.08;21.35;100035.57;1641019;85;20187;-72
2022/05/10 10:25:15;;;;;;;;;;;;;;;20.97;19.89;100033.19;1671977;86;20129;-70
2022/05/10 10:28:04;;;;;;;;;;;;;;;20.79;20.31;100034.91;1667831;84;21163;-75
2022/05/10 10:30:36;;;;;;;;;;;;;;;20.83;21.56;100032.15;1675871;84;20094;-77
2022/05/10 10:33:28;;;;;;;;;;;;;;;20.93;19.61;100015.58;1676423;85;20160;-74
2022/05/10 10:36:00;;;;;;;;;;;;;;;20.86;21.43;100019.65;1719393;82;20158;-74
2022/05/10 10:38:45;;;;;;;;;;;;;;;20.85;21.62;100020.02;1692250;82;20119;-69
2022/05/10 10:41:18;;;;;;;;;;;;;;;20.92;20.92;100025.14;1663131;84;21182;-70
2022/05/10 10:43:49;;;;;;;;;;;;;;;21.03;21.80;100006.58;1648970;85;20152;-73
2022/05/10 10:46:36;;;;;;;;;;;;;;;21.11;21.43;100013.08;1664041;85;20104;-75
2022/05/10 10:49:14;;;;;;;;;;;;;;;21.07;23.02;100000.46;1666860;85;20076;-70
2022/05/10 10:51:43;;;;;;;;;;;;;;;21.26;22.95;99998.19;1672947;84;20157;-67
2022/05/10 10:54:18;;;;;;;;;;;;;;;21.53;23.01;99992.55;1655735;84;21096;-68
2022/05/10 10:57:06;;;;;;;;;;;;;;;21.93;23.72;99991.27;1658016;85;20271;-67
2022/05/10 10:59:57;;;;;;;;;;;;;;;22.02;19.00;99993.77;1654575;84;20203;-67
2022/05/10 11:02:37;;;;;;;;;;;;;;;21.58;18.74;99986.63;1645674;86;20160;-67
2022/05/10 11:05:10;;;;;;;;;;;;;;;21.24;19.56;99988.58;1644137;86;20199;-67
2022/05/10 11:07:49;;;;;;;;;;;;;;;21.12;21.53;99972.02;1630890;86;21159;-68
2022/05/10 11:10:47;;;;;;;;;;;;;;;21.28;21.73;99969.30;1684256;82;20117;-69
2022/05/10 11:13:51;;;;;;;;;;;;;;;21.78;22.02;99973.31;1675411;84;20136;-67
2022/05/10 11:16:30;;;;;;;;;;;;;;;22.32;21.06;99960.95;1685742;84;20207;-67
2022/05/10 11:19:12;;;;;;;;;;;;;;;22.65;19.66;99964.81;1677267;84;20203;-88
2022/05/10 11:21:47;;;;;;;;;;;;;;;22.67;19.65;99962.44;1660606;84;21248;-86
2022/05/10 11:24:27;;;;;;;;;;;;;;;22.47;18.95;99954.90;1649478;85;20201;-81
2022/05/10 11:27:20;;;;;;;;;;;;;;;22.46;18.48;99948.29;1653240;85;20089;-83
2022/05/10 11:29:50;;;;;;;;;;;;;;;22.32;19.10;99938.58;1634252;86;20787;-84
2022/05/10 11:32:53;;;;;;;;;;;;;;;22.39;21.27;99933.64;1656008;86;20163;-83
2022/05/10 11:35:39;;;;;;;;;;;;;;;22.68;20.12;99933.27;1627562;88;21237;-79
2022/05/10 11:38:25;;;;;;;;;;;;;;;22.98;20.66;99937.31;1679257;83;20085;-84
2022/05/10 11:41:04;;;;;;;;;;;;;;;23.27;18.48;99919.47;1663717;84;20151;-81
2022/05/10 11:43:57;;;;;;;;;;;;;;;22.74;17.69;99922.72;1670469;85;20140;-80
2022/05/10 11:46:34;;;;;;;;;;;;;;;22.22;18.21;99918.30;1653008;85;20145;-89
2022/05/10 11:49:27;;;;;;;;;;;;;;;21.90;17.67;99924.16;1636464;86;21211;-85
2022/05/10 11:52:12;;;;;;;;;;;;;;;21.65;19.02;99917.69;1652691;85;20115;-92
2022/05/10 11:54:49;;;;;;;;;;;;;;;21.81;18.90;99911.88;1629511;84;20106;-90
2022/05/10 11:57:17;;;;;;;;;;;;;;;21.99;19.28;99905.05;1701378;82;20099;-88
2022/05/10 11:59:45;;;;;;;;;;;;;;;21.99;20.26;99902.27;1692314;83;20103;-89
2022/05/10 12:02:33;;;;;;;;;;;;;;;22.12;19.17;99886.84;1697092;83;22172;-83
2022/05/10 12:05:15;;;;;;;;;;;;;;;22.26;20.17;99881.39;1662898;85;20455;-89
2022/05/10 12:07:44;;;;;;;;;;;;;;;22.55;20.05;99885.20;1673884;84;20088;-88
2022/05/10 12:10:33;;;;;;;;;;;;;;;22.95;18.98;99877.31;1672257;85;20104;-90
2022/05/10 12:13:02;;;;;;;;;;;;;;;23.00;17.79;99882.54;1694746;82;20452;-90
2022/05/10 12:21:23;;;;;;;;;;;;;;;22.34;19.34;99865.47;1700006;83;20156;-88
2022/05/10 12:24:21;;;;;;;;;;;;;;;22.23;19.96;99874.37;1699440;82;20110;-91
2022/05/10 12:26:57;;;;;;;;;;;;;;;22.29;17.93;99869.43;1657728;85;20148;-88
2022/05/10 12:29:39;;;;;;;;;;;;;;;22.42;18.54;99860.14;1654415;85;21156;-84
2022/05/10 12:32:26;;;;;;;;;;;;;;;22.52;17.87;99863.63;1625687;86;20100;-83
2022/05/10 12:34:54;;;;;;;;;;;;;;;22.51;18.44;99857.02;1656286;86;20130;-77
2022/05/10 12:37:36;;;;;;;;;;;;;;;22.74;17.93;99853.35;1615489;86;20108;-73
2022/05/10 12:40:11;;;;;;;;;;;;;;;22.89;18.01;99845.28;1668463;83;20152;-76
2022/05/10 12:43:11;;;;;;;;;;;;;;;22.81;19.87;99842.23;1667084;85;21177;-78
2022/05/10 12:46:02;;;;;;;;;;;;;;;22.85;18.62;99843.66;1657326;83;20422;-73
2022/05/10 12:48:48;;;;;;;;;;;;;;;23.02;18.03;99840.16;1650336;85;20133;-75
2022/05/10 12:51:47;;;;;;;;;;;;;;;22.82;17.98;99834.05;1634717;87;20125;-75
2022/05/10 12:54:25;;;;;;;;;;;;;;;22.37;18.76;99820.75;1610049;88;20119;-85
2022/05/10 12:56:58;;;;;;;;;;;;;;;21.90;19.80;99824.34;1658774;84;21195;-83
2022/05/10 12:59:47;;;;;;;;;;;;;;;21.96;20.62;99821.38;1696665;83;20092;-77
2022/05/10 13:02:14;;;;;;;;;;;;;;;22.32;20.14;99810.52;1704865;84;20093;-76
2022/05/10 13:04:50;;;;;;;;;;;;;;;22.70;20.42;99803.56;1696252;84;20571;-70
2022/05/10 13:07:33;;;;;;;;;;;;;;;22.80;20.40;99801.45;1703762;84;20433;-68
2022/05/10 13:10:02;;;;;;;;;;;;;;;23.03;19.47;99807.56;1692793;84;21179;-69
2022/05/10 13:12:31;;;;;;;;;;;;;;;23.25;18.03;99810.42;1672462;84;20097;-68
2022/05/10 13:15:01;;;;;;;;;;;;;;;23.38;17.60;99807.47;1683977;84;20122;-68
2022/05/10 13:17:33;;;;;;;;;;;;;;;23.59;17.91;99794.14;1664420;86;20151;-69
2022/05/10 13:20:00;;;;;;;;;;;;;;;23.95;17.42;99802.78;1630034;87;20122;-69
2022/05/10 13:22:27;;;;;;;;;;;;;;;24.20;19.02;99792.97;1644597;85;21346;-69
2022/05/10 13:25:04;;;;;;;;;;;;;;;24.39;17.80;99779.72;1643591;86;20135;-68